Aviation Digital Data Service (ADDS)

Output produced by METARs form (0737 UTC 21 October 2018)
found at http://aviationweather.gov/metar/data/
 
KCXO 210653Z AUTO 36004KT 10SM CLR 16/16 A3023 RMK AO2 SLP234 T01560156
KCXO 210520Z 2106/2206 01006KT P6SM SCT150 BKN250 
     FM211500 04010KT P6SM SCT250 
     FM212300 36003KT P6SM BKN250